Lance Creek, WY (82222)

7:36 AM MST on November 28, 2014 (GMT -0700)
Converse County | Change Station
CLOSE
Current Station
Airport
Location: Douglas,
Elevation: 4928 ft
Nearby Weather Stations

Elev 4928 ft 42.80 °N, 105.38 °W | Updated 43 minutes ago

Partly Cloudy
Partly Cloudy
50 °F
Feels Like 50 °F
N
21
Wind Variable Wind from West
Gusts 26 mph

Today
High -- | Low -- °F
--% Chance of Precip.
Yesterday
High -- | Low -- °F
Precip. -- in
7:07 AM 4:25 PM
Waxing Crescent, 41% visible
Pressure 29.78 in
Visibility 10.0 miles
Clouds Clear
Dew Point 21 °F
Humidity 32%
Rainfall 0.00 in
Snow Depth Not available.
UV 0 out of 12
Pollen .10 out of 12
Air Quality Not available.
Flu Activity Not available.
METAR KDGW 281353Z AUTO 27018G23KT 10SM CLR 10/M06 A2984 RMK AO2 PK WND 27026/1254 SLP084 T01001061

More Conditions Fewer Conditions

Pressure 29.78 in
Visibility 10.0 miles
Clouds Clear
Dew Point 21 °F
Humidity 32%
Rainfall 0.00 in
Snow Depth Not available.
UV 0 out of 12
Pollen .10 out of 12
Air Quality Not available.
Flu Activity Not available.
METAR KDGW 281353Z AUTO 27018G23KT 10SM CLR 10/M06 A2984 RMK AO2 PK WND 27026/1254 SLP084 T01001061

More Conditions Fewer Conditions

10-Day Weather Forecast

Almanac

Astronomy

Nov. 28, 2014 Rise Set
Actual Time
Civil Twilight
Nautical Twilight
Astronomical Twilight
Moon
Length of Visible Light
Length of Day
Tomorrow will be .
, % of the Moon is Illuminated

Today's Extremes

State Highs State Lows

Community

WunderPhotos

Upload Photos

1,774,215 photos uploaded!

WunderBlogs® & News

Nearby

Air Quality

  Air Quality AQ Index Pollutant
Not available.

Snow Depth

Station Depth Elevation

Earthquake Activity

City Distance Mag. Time & Date
Minimum magnitude displayed is 2.5.

Coastal Water Temperatures

Place Temperature

Nearby Weather Stations